createdAt,value
2022-11-18T16:00:25.631Z,99520.14
2022-11-18T16:02:59.645Z,99527.48
2022-11-18T16:05:33.082Z,99534.05
2022-11-18T16:08:06.532Z,99533.61
2022-11-18T16:10:57.287Z,99536.45
2022-11-18T16:13:31.380Z,99536.80
2022-11-18T16:16:05.324Z,99537.67
2022-11-18T16:18:40.802Z,99542.24
2022-11-18T16:21:14.981Z,99544.40
2022-11-18T16:23:49.092Z,99550.73
2022-11-18T16:26:22.250Z,99553.60
2022-11-18T16:28:56.362Z,99556.35
2022-11-18T16:31:41.992Z,99561.71
2022-11-18T16:34:17.185Z,99563.76
2022-11-18T16:36:52.450Z,99564.80
2022-11-18T16:39:27.841Z,99564.56
2022-11-18T16:42:08.330Z,99565.25
2022-11-18T16:44:42.583Z,99566.59
2022-11-18T16:47:16.170Z,99567.50
2022-11-18T16:49:49.870Z,99570.11
2022-11-18T16:52:24.846Z,99572.16
2022-11-18T16:54:58.433Z,99574.03
2022-11-18T16:57:32.648Z,99576.11
2022-11-18T17:00:08.315Z,99578.09
2022-11-18T17:02:42.515Z,99578.98
2022-11-18T17:05:16.440Z,99578.69
2022-11-18T17:07:50.351Z,99578.23
2022-11-18T17:10:24.977Z,99580.78
2022-11-18T17:12:58.582Z,99581.61
2022-11-18T17:15:33.257Z,99582.48
2022-11-18T17:18:25.299Z,99581.96
2022-11-18T17:20:58.797Z,99589.70
2022-11-18T17:23:33.115Z,99583.17
2022-11-18T17:26:08.627Z,99584.78
2022-11-18T17:28:43.896Z,99581.70
2022-11-18T17:31:19.482Z,99578.37
2022-11-18T17:33:56.491Z,99579.13
2022-11-18T17:36:31.245Z,99582.34
2022-11-18T17:39:04.879Z,99581.92
2022-11-18T17:41:56.490Z,99584.14
2022-11-18T17:44:30.965Z,99590.95
2022-11-18T17:47:05.438Z,99587.38
2022-11-18T17:49:39.359Z,99589.52
2022-11-18T17:52:13.479Z,99590.99
2022-11-18T17:54:46.696Z,99592.38
2022-11-18T17:57:20.494Z,99591.66
2022-11-18T17:59:54.178Z,99592.14
2022-11-18T18:02:28.657Z,99591.51
2022-11-18T18:05:02.789Z,99588.61
2022-11-18T18:07:36.914Z,99587.74
2022-11-18T18:10:12.864Z,99591.08
2022-11-18T18:13:13.712Z,99597.10
2022-11-18T18:16:00.252Z,99591.77
2022-11-18T18:18:34.647Z,99595.14
2022-11-18T18:21:12.865Z,99596.25
2022-11-18T18:23:47.434Z,99598.52
2022-11-18T18:26:26.599Z,99599.21
2022-11-18T18:29:05.659Z,99600.71
2022-11-18T18:31:40.247Z,99599.48
2022-11-18T18:34:13.875Z,99606.34
2022-11-18T18:36:48.137Z,99604.45
2022-11-18T18:39:22.571Z,99606.70
2022-11-18T18:41:56.422Z,99612.02
2022-11-18T18:44:51.091Z,99614.63
2022-11-18T18:47:25.933Z,99613.23
2022-11-18T18:49:59.495Z,99614.05
2022-11-18T18:52:34.594Z,99620.19
2022-11-18T18:55:09.978Z,99623.36
2022-11-18T18:57:44.691Z,99621.71
2022-11-18T19:00:21.272Z,99622.63
2022-11-18T19:02:55.968Z,99624.71
2022-11-18T19:06:00.805Z,99626.94
2022-11-18T19:08:28.132Z,99630.64
2022-11-18T19:11:07.222Z,99630.89
2022-11-18T19:13:39.605Z,99632.91
2022-11-18T19:16:14.057Z,99632.52
2022-11-18T19:18:50.826Z,99631.33
2022-11-18T19:21:25.818Z,99630.88
2022-11-18T19:24:00.772Z,99631.13
2022-11-18T19:26:36.044Z,99632.58
2022-11-18T19:29:10.646Z,99634.13
2022-11-18T19:31:44.983Z,99635.25
2022-11-18T19:34:20.549Z,99638.86
2022-11-18T19:36:54.727Z,99641.89
2022-11-18T19:39:28.620Z,99644.77
2022-11-18T19:42:02.919Z,99647.91
2022-11-18T19:44:36.577Z,99652.42
2022-11-18T19:47:10.523Z,99652.54
2022-11-18T19:49:44.516Z,99655.51
2022-11-18T19:52:19.389Z,99651.10
2022-11-18T19:54:52.743Z,99653.10
2022-11-18T19:57:26.948Z,99654.77
2022-11-18T20:00:01.189Z,99654.57
2022-11-18T20:02:35.909Z,99654.25
2022-11-18T20:05:32.422Z,99656.94
2022-11-18T20:08:08.586Z,99657.32
2022-11-18T20:10:42.985Z,99656.14
2022-11-18T20:13:18.496Z,99654.95
2022-11-18T20:15:53.425Z,99652.70
2022-11-18T20:18:27.869Z,99651.79
2022-11-18T20:21:07.576Z,99658.05
2022-11-18T20:23:41.985Z,99660.22
2022-11-18T20:26:17.632Z,99663.41
2022-11-18T20:28:57.224Z,99665.89
2022-11-18T20:31:34.697Z,99666.16
2022-11-18T20:34:09.319Z,99668.40
2022-11-18T20:36:46.009Z,99668.77
2022-11-18T20:39:21.353Z,99671.58
2022-11-18T20:42:13.437Z,99672.92
2022-11-18T20:44:48.665Z,99673.34
2022-11-18T20:47:21.387Z,99676.19
2022-11-18T20:49:57.863Z,99677.25
2022-11-18T20:52:32.199Z,99678.67
2022-11-18T20:55:06.904Z,99676.41
2022-11-18T20:57:40.619Z,99674.36
2022-11-18T21:00:16.554Z,99673.02
2022-11-18T21:02:50.255Z,99681.20
2022-11-18T21:05:24.281Z,99685.11
2022-11-18T21:07:58.025Z,99684.87
2022-11-18T21:10:32.281Z,99685.45
2022-11-18T21:13:24.795Z,99690.98
2022-11-18T21:15:59.323Z,99693.53
2022-11-18T21:18:33.871Z,99696.65
2022-11-18T21:21:25.857Z,99697.92
2022-11-18T21:24:01.141Z,99704.55
2022-11-18T21:26:36.634Z,99705.41
2022-11-18T21:29:11.935Z,99709.55
2022-11-18T21:31:46.178Z,99708.88
2022-11-18T21:34:20.351Z,99711.89
2022-11-18T21:36:55.417Z,99711.67
2022-11-18T21:39:30.063Z,99708.23
2022-11-18T21:42:04.090Z,99709.27
2022-11-18T21:44:37.948Z,99707.70
2022-11-18T21:47:12.152Z,99710.44
2022-11-18T21:49:45.698Z,99713.58
2022-11-18T21:52:19.419Z,99715.27
2022-11-18T21:54:52.837Z,99714.09
2022-11-18T21:57:26.316Z,99715.40
2022-11-18T21:59:59.736Z,99718.48
2022-11-18T22:02:33.467Z,99715.11
2022-11-18T22:05:08.644Z,99720.73
2022-11-18T22:07:42.153Z,99719.24
2022-11-18T22:10:17.148Z,99720.03
2022-11-18T22:12:51.888Z,99722.69
2022-11-18T22:15:25.491Z,99729.13
2022-11-18T22:17:58.637Z,99729.42
2022-11-18T22:20:32.413Z,99727.43
2022-11-18T22:23:06.379Z,99726.95
2022-11-18T22:25:40.345Z,99728.05
2022-11-18T22:28:13.823Z,99729.11
2022-11-18T22:30:48.257Z,99728.70
2022-11-18T22:33:21.709Z,99729.36
2022-11-18T22:35:55.059Z,99732.16
2022-11-18T22:38:28.937Z,99733.86
2022-11-18T22:41:07.009Z,99736.30
2022-11-18T22:43:40.781Z,99739.55
2022-11-18T22:46:15.463Z,99740.45
2022-11-18T22:48:49.055Z,99739.52
2022-11-18T22:51:22.515Z,99738.52
2022-11-18T22:54:15.936Z,99732.73
2022-11-18T22:56:49.956Z,99734.25
2022-11-18T22:59:23.513Z,99736.45
2022-11-18T23:01:57.069Z,99734.59
2022-11-18T23:04:30.642Z,99736.59
2022-11-18T23:07:04.425Z,99729.90
2022-11-18T23:09:37.956Z,99729.41
2022-11-18T23:12:29.076Z,99730.99
2022-11-18T23:15:02.957Z,99727.12
2022-11-18T23:17:36.408Z,99725.80
2022-11-18T23:20:12.449Z,99727.88
2022-11-18T23:22:46.198Z,99730.05
2022-11-18T23:25:20.080Z,99732.17
2022-11-18T23:27:54.467Z,99730.09
2022-11-18T23:30:28.379Z,99732.94
2022-11-18T23:33:01.943Z,99734.80
2022-11-18T23:35:35.747Z,99730.99
2022-11-18T23:38:09.160Z,99729.48
2022-11-18T23:40:42.442Z,99726.97
2022-11-18T23:43:15.860Z,99727.39
2022-11-18T23:45:49.489Z,99726.31
2022-11-18T23:48:23.777Z,99728.39
2022-11-18T23:51:01.893Z,99726.90
2022-11-18T23:53:37.013Z,99728.54
2022-11-18T23:56:12.978Z,99729.10
2022-11-18T23:58:48.223Z,99724.94
